sensor_id;sensor_type;location;lat;lon;timestamp;pressure;altitude;pressure_sealevel;temperature;humidity
45369;BME280;51342;55.250;37.668;2023-04-01T00:00:33;98208.44;;;0.64;81.54
45369;BME280;51342;55.250;37.668;2023-04-01T00:03:04;98205.13;;;0.65;81.60
45369;BME280;51342;55.250;37.668;2023-04-01T00:05:36;98194.72;;;0.62;81.74
45369;BME280;51342;55.250;37.668;2023-04-01T00:08:07;98199.16;;;0.64;81.58
45369;BME280;51342;55.250;37.668;2023-04-01T00:10:39;98199.16;;;0.64;81.55
45369;BME280;51342;55.250;37.668;2023-04-01T00:13:10;98201.59;;;0.63;81.80
45369;BME280;51342;55.250;37.668;2023-04-01T00:15:43;98196.50;;;0.63;81.64
45369;BME280;51342;55.250;37.668;2023-04-01T00:18:14;98194.72;;;0.62;81.62
45369;BME280;51342;55.250;37.668;2023-04-01T00:20:48;98192.94;;;0.61;81.67
45369;BME280;51342;55.250;37.668;2023-04-01T00:23:20;98191.19;;;0.60;81.79
45369;BME280;51342;55.250;37.668;2023-04-01T00:25:52;98169.59;;;0.55;81.56
45369;BME280;51342;55.250;37.668;2023-04-01T00:28:23;98189.63;;;0.62;81.57
45369;BME280;51342;55.250;37.668;2023-04-01T00:30:54;98184.53;;;0.62;81.66
45369;BME280;51342;55.250;37.668;2023-04-01T00:33:26;98185.41;;;0.62;81.77
45369;BME280;51342;55.250;37.668;2023-04-01T00:36:13;98186.78;;;0.57;81.54
45369;BME280;51342;55.250;37.668;2023-04-01T00:38:45;98186.97;;;0.60;81.70
45369;BME280;51342;55.250;37.668;2023-04-01T00:41:18;98189.50;;;0.60;81.69
45369;BME280;51342;55.250;37.668;2023-04-01T00:43:52;98192.84;;;0.59;81.70
45369;BME280;51342;55.250;37.668;2023-04-01T00:46:23;98188.88;;;0.63;81.48
45369;BME280;51342;55.250;37.668;2023-04-01T00:48:55;98198.13;;;0.62;81.44
45369;BME280;51342;55.250;37.668;2023-04-01T00:51:29;98191.28;;;0.61;81.83
45369;BME280;51342;55.250;37.668;2023-04-01T00:54:01;98184.44;;;0.60;81.56
45369;BME280;51342;55.250;37.668;2023-04-01T00:56:39;98192.94;;;0.61;81.74
45369;BME280;51342;55.250;37.668;2023-04-01T00:59:17;98192.16;;;0.62;81.64
45369;BME280;51342;55.250;37.668;2023-04-01T01:01:51;98187.84;;;0.61;82.12
45369;BME280;51342;55.250;37.668;2023-04-01T01:04:30;98194.59;;;0.60;81.96
45369;BME280;51342;55.250;37.668;2023-04-01T01:07:13;98201.59;;;0.63;81.85
45369;BME280;51342;55.250;37.668;2023-04-01T01:16:18;98202.34;;;0.50;81.90
45369;BME280;51342;55.250;37.668;2023-04-01T01:24:30;98205.22;;;0.55;81.78
45369;BME280;51342;55.250;37.668;2023-04-01T01:27:12;98198.56;;;0.57;81.97
45369;BME280;51342;55.250;37.668;2023-04-01T01:32:55;98206.00;;;0.53;81.59
45369;BME280;51342;55.250;37.668;2023-04-01T01:35:37;98199.34;;;0.56;81.99
45369;BME280;51342;55.250;37.668;2023-04-01T01:38:19;98197.59;;;0.55;81.92
45369;BME280;51342;55.250;37.668;2023-04-01T01:41:01;98196.03;;;0.57;81.94
45369;BME280;51342;55.250;37.668;2023-04-01T01:43:40;98206.09;;;0.55;81.94
45369;BME280;51342;55.250;37.668;2023-04-01T01:46:17;98198.38;;;0.53;81.69
45369;BME280;51342;55.250;37.668;2023-04-01T01:48:51;98197.59;;;0.55;81.78
45369;BME280;51342;55.250;37.668;2023-04-01T01:51:23;98198.56;;;0.57;81.71
45369;BME280;51342;55.250;37.668;2023-04-01T01:53:55;98204.44;;;0.56;81.64
45369;BME280;51342;55.250;37.668;2023-04-01T01:56:29;98206.22;;;0.57;81.77
45369;BME280;51342;55.250;37.668;2023-04-01T01:59:06;98200.91;;;0.53;81.86
45369;BME280;51342;55.250;37.668;2023-04-01T02:01:42;98206.00;;;0.53;81.82
45369;BME280;51342;55.250;37.668;2023-04-01T02:04:18;98200.91;;;0.53;81.98
45369;BME280;51342;55.250;37.668;2023-04-01T02:07:00;98208.44;;;0.52;81.74
45369;BME280;51342;55.250;37.668;2023-04-01T02:09:33;98210.22;;;0.53;81.74
45369;BME280;51342;55.250;37.668;2023-04-01T02:12:07;98219.72;;;0.56;81.69
45369;BME280;51342;55.250;37.668;2023-04-01T02:15:06;98217.06;;;0.54;81.63
45369;BME280;51342;55.250;37.668;2023-04-01T02:17:43;98210.88;;;0.50;81.84
45369;BME280;51342;55.250;37.668;2023-04-01T02:20:18;98224.69;;;0.54;81.74
45369;BME280;51342;55.250;37.668;2023-04-01T02:22:53;98223.81;;;0.53;81.61
45369;BME280;51342;55.250;37.668;2023-04-01T02:25:29;98215.22;;;0.51;81.76
45369;BME280;51342;55.250;37.668;2023-04-01T02:28:02;98217.06;;;0.54;81.86
45369;BME280;51342;55.250;37.668;2023-04-01T02:30:36;98211.09;;;0.53;81.63
45369;BME280;51342;55.250;37.668;2023-04-01T02:33:09;98213.66;;;0.53;81.86
45369;BME280;51342;55.250;37.668;2023-04-01T02:35:43;98215.94;;;0.50;81.81
45369;BME280;51342;55.250;37.668;2023-04-01T02:38:14;98216.19;;;0.53;81.60
45369;BME280;51342;55.250;37.668;2023-04-01T02:40:56;98221.03;;;0.50;81.65
45369;BME280;51342;55.250;37.668;2023-04-01T02:43:27;98214.28;;;0.51;82.06
45369;BME280;51342;55.250;37.668;2023-04-01T02:45:59;98217.06;;;0.54;81.71
45369;BME280;51342;55.250;37.668;2023-04-01T02:48:30;98223.91;;;0.55;81.57
45369;BME280;51342;55.250;37.668;2023-04-01T02:51:02;98221.47;;;0.57;81.72
45369;BME280;51342;55.250;37.668;2023-04-01T02:53:33;98216.09;;;0.52;81.62
45369;BME280;51342;55.250;37.668;2023-04-01T02:56:05;98225.16;;;0.60;81.83
45369;BME280;51342;55.250;37.668;2023-04-01T02:58:36;98225.16;;;0.60;81.71
45369;BME280;51342;55.250;37.668;2023-04-01T03:01:07;98228.56;;;0.61;81.90
45369;BME280;51342;55.250;37.668;2023-04-01T03:03:39;98228.56;;;0.61;81.86
45369;BME280;51342;55.250;37.668;2023-04-01T03:06:13;98237.97;;;0.62;81.84
45369;BME280;51342;55.250;37.668;2023-04-01T03:08:45;98226.13;;;0.62;81.64
45369;BME280;51342;55.250;37.668;2023-04-01T03:11:17;98230.22;;;0.60;81.68
45369;BME280;51342;55.250;37.668;2023-04-01T03:13:48;98233.75;;;0.62;81.72
45369;BME280;51342;55.250;37.668;2023-04-01T03:16:20;98241.53;;;0.64;81.86
45369;BME280;51342;55.250;37.668;2023-04-01T03:18:51;98240.75;;;0.65;81.75
45369;BME280;51342;55.250;37.668;2023-04-01T03:21:24;98237.44;;;0.66;81.92
45369;BME280;51342;55.250;37.668;2023-04-01T03:23:55;98241.72;;;0.67;81.85
45369;BME280;51342;55.250;37.668;2023-04-01T03:26:27;98243.41;;;0.66;82.07
45369;BME280;51342;55.250;37.668;2023-04-01T03:28:59;98245.94;;;0.66;82.08
45369;BME280;51342;55.250;37.668;2023-04-01T03:31:30;98249.38;;;0.67;82.15
45369;BME280;51342;55.250;37.668;2023-04-01T03:34:02;98253.81;;;0.69;82.16
45369;BME280;51342;55.250;37.668;2023-04-01T03:36:33;98259.78;;;0.70;81.88
45369;BME280;51342;55.250;37.668;2023-04-01T03:39:05;98255.69;;;0.72;82.07
45369;BME280;51342;55.250;37.668;2023-04-01T03:41:45;98258.13;;;0.70;82.20
45369;BME280;51342;55.250;37.668;2023-04-01T03:44:17;98272.72;;;0.73;82.01
45369;BME280;51342;55.250;37.668;2023-04-01T03:46:51;98272.84;;;0.74;81.96
45369;BME280;51342;55.250;37.668;2023-04-01T03:49:22;98276.28;;;0.75;82.04
45369;BME280;51342;55.250;37.668;2023-04-01T03:51:55;98273.59;;;0.73;82.26
45369;BME280;51342;55.250;37.668;2023-04-01T03:54:27;98285.69;;;0.76;82.31
45369;BME280;51342;55.250;37.668;2023-04-01T03:56:58;98282.34;;;0.77;82.25
45369;BME280;51342;55.250;37.668;2023-04-01T03:59:30;98282.34;;;0.77;82.15
45369;BME280;51342;55.250;37.668;2023-04-01T04:02:02;98290.09;;;0.78;82.27
45369;BME280;51342;55.250;37.668;2023-04-01T04:04:34;98282.16;;;0.74;82.15
45369;BME280;51342;55.250;37.668;2023-04-01T04:07:05;98289.22;;;0.78;82.39
45369;BME280;51342;55.250;37.668;2023-04-01T04:09:54;98290.97;;;0.79;82.49
45369;BME280;51342;55.250;37.668;2023-04-01T04:12:25;98290.97;;;0.79;82.22
45369;BME280;51342;55.250;37.668;2023-04-01T04:14:58;98293.66;;;0.81;82.27
45369;BME280;51342;55.250;37.668;2023-04-01T04:17:29;98298.06;;;0.83;82.24
45369;BME280;51342;55.250;37.668;2023-04-01T04:20:01;98296.31;;;0.82;82.41
45369;BME280;51342;55.250;37.668;2023-04-01T04:22:32;98304.19;;;0.85;82.35
45369;BME280;51342;55.250;37.668;2023-04-01T04:25:05;98300.72;;;0.85;82.50
45369;BME280;51342;55.250;37.668;2023-04-01T04:27:36;98305.25;;;0.89;82.43
45369;BME280;51342;55.250;37.668;2023-04-01T04:30:13;98307.91;;;0.90;82.56
45369;BME280;51342;55.250;37.668;2023-04-01T04:32:44;98308.03;;;0.92;82.30
45369;BME280;51342;55.250;37.668;2023-04-01T04:35:17;98304.81;;;0.94;82.33
45369;BME280;51342;55.250;37.668;2023-04-01T04:37:48;98304.03;;;0.95;82.35
45369;BME280;51342;55.250;37.668;2023-04-01T04:40:20;98313.78;;;1.01;82.43
45369;BME280;51342;55.250;37.668;2023-04-01T04:42:52;98306.13;;;1.01;82.48
45369;BME280;51342;55.250;37.668;2023-04-01T04:45:23;98308.91;;;1.04;82.28
45369;BME280;51342;55.250;37.668;2023-04-01T04:47:59;98315.78;;;1.05;82.41
45369;BME280;51342;55.250;37.668;2023-04-01T04:50:30;98321.84;;;1.07;82.17
45369;BME280;51342;55.250;37.668;2023-04-01T04:53:02;98325.28;;;1.08;82.21
45369;BME280;51342;55.250;37.668;2023-04-01T04:55:35;98332.28;;;1.10;82.03
45369;BME280;51342;55.250;37.668;2023-04-01T04:58:36;98336.25;;;1.06;82.33
45369;BME280;51342;55.250;37.668;2023-04-01T05:01:13;98334.72;;;1.09;82.27
45369;BME280;51342;55.250;37.668;2023-04-01T05:03:45;98343.44;;;1.12;82.40
45369;BME280;51342;55.250;37.668;2023-04-01T05:06:17;98335.94;;;1.14;82.18
45369;BME280;51342;55.250;37.668;2023-04-01T05:08:48;98337.91;;;1.18;82.09
45369;BME280;51342;55.250;37.668;2023-04-01T05:11:20;98339.91;;;1.22;82.14
45369;BME280;51342;55.250;37.668;2023-04-01T05:13:53;98348.75;;;1.27;82.12
45369;BME280;51342;55.250;37.668;2023-04-01T05:16:25;98351.41;;;1.28;82.15
45369;BME280;51342;55.250;37.668;2023-04-01T05:18:56;98353.31;;;1.31;81.89
45369;BME280;51342;55.250;37.668;2023-04-01T05:21:28;98352.44;;;1.30;82.21
45369;BME280;51342;55.250;37.668;2023-04-01T05:24:01;98356.06;;;1.34;82.31
45369;BME280;51342;55.250;37.668;2023-04-01T05:26:33;98347.53;;;1.33;82.13
45369;BME280;51342;55.250;37.668;2023-04-01T05:29:05;98360.72;;;1.40;81.74
45369;BME280;51342;55.250;37.668;2023-04-01T05:31:37;98363.50;;;1.43;81.91
45369;BME280;51342;55.250;37.668;2023-04-01T05:34:09;98365.34;;;1.45;82.03
45369;BME280;51342;55.250;37.668;2023-04-01T05:36:42;98367.13;;;1.46;81.60
45369;BME280;51342;55.250;37.668;2023-04-01T05:39:13;98369.78;;;1.48;81.97
45369;BME280;51342;55.250;37.668;2023-04-01T05:41:45;98361.47;;;1.50;81.79
45369;BME280;51342;55.250;37.668;2023-04-01T05:44:17;98365.78;;;1.51;81.96
45369;BME280;51342;55.250;37.668;2023-04-01T05:47:14;98371.13;;;1.54;82.06
45369;BME280;51342;55.250;37.668;2023-04-01T05:49:45;98367.22;;;1.59;81.92
45369;BME280;51342;55.250;37.668;2023-04-01T05:52:17;98363.09;;;1.62;81.85
45369;BME280;51342;55.250;37.668;2023-04-01T05:54:48;98372.31;;;1.71;81.98
45369;BME280;51342;55.250;37.668;2023-04-01T05:57:20;98367.72;;;1.79;81.70
45369;BME280;51342;55.250;37.668;2023-04-01T05:59:51;98377.00;;;1.90;81.61
45369;BME280;51342;55.250;37.668;2023-04-01T06:02:23;98374.22;;;1.99;81.68
45369;BME280;51342;55.250;37.668;2023-04-01T06:05:10;98378.16;;;2.07;81.61
45369;BME280;51342;55.250;37.668;2023-04-01T06:07:43;98374.47;;;2.15;81.31
45369;BME280;51342;55.250;37.668;2023-04-01T06:10:19;98381.09;;;2.25;81.18
45369;BME280;51342;55.250;37.668;2023-04-01T06:24:23;98389.69;;;2.77;81.05
45369;BME280;51342;55.250;37.668;2023-04-01T06:30:06;98397.59;;;2.93;80.83
45369;BME280;51342;55.250;37.668;2023-04-01T06:35:35;98402.91;;;3.09;80.20
45369;BME280;51342;55.250;37.668;2023-04-01T06:54:04;98416.69;;;3.38;79.40
45369;BME280;51342;55.250;37.668;2023-04-01T06:57:48;98418.56;;;3.27;79.48
45369;BME280;51342;55.250;37.668;2023-04-01T07:03:16;98423.38;;;3.49;79.60
45369;BME280;51342;55.250;37.668;2023-04-01T07:05:51;98417.00;;;3.69;79.53
45369;BME280;51342;55.250;37.668;2023-04-01T07:08:25;98412.53;;;3.80;79.28
45369;BME280;51342;55.250;37.668;2023-04-01T07:11:05;98417.44;;;3.90;78.72
45369;BME280;51342;55.250;37.668;2023-04-01T07:14:32;98413.06;;;4.02;79.06
45369;BME280;51342;55.250;37.668;2023-04-01T07:17:15;98414.03;;;4.17;78.74
45369;BME280;51342;55.250;37.668;2023-04-01T07:20:23;98416.31;;;4.41;78.70
45369;BME280;51342;55.250;37.668;2023-04-01T07:22:59;98417.25;;;4.56;78.33
45369;BME280;51342;55.250;37.668;2023-04-01T07:25:48;98422.38;;;4.56;77.99
45369;BME280;51342;55.250;37.668;2023-04-01T07:28:33;98413.38;;;4.63;77.58
45369;BME280;51342;55.250;37.668;2023-04-01T07:56:41;98452.66;;;5.21;75.65
45369;BME280;51342;55.250;37.668;2023-04-01T07:59:48;98451.41;;;5.14;75.97
45369;BME280;51342;55.250;37.668;2023-04-01T08:02:56;98450.38;;;5.11;75.38
45369;BME280;51342;55.250;37.668;2023-04-01T08:18:03;98463.00;;;5.37;75.24
45369;BME280;51342;55.250;37.668;2023-04-01T08:20:47;98451.41;;;5.44;74.53
45369;BME280;51342;55.250;37.668;2023-04-01T08:23:25;98459.03;;;5.42;74.69
45369;BME280;51342;55.250;37.668;2023-04-01T08:28:50;98463.69;;;5.49;74.56
45369;BME280;51342;55.250;37.668;2023-04-01T08:34:28;98463.16;;;5.55;74.34
45369;BME280;51342;55.250;37.668;2023-04-01T08:37:25;98465.56;;;5.52;74.17
45369;BME280;51342;55.250;37.668;2023-04-01T08:54:55;98475.50;;;5.46;73.61
45369;BME280;51342;55.250;37.668;2023-04-01T09:04:25;98477.69;;;5.69;72.96
45369;BME280;51342;55.250;37.668;2023-04-01T09:21:29;98480.75;;;5.93;71.93
45369;BME280;51342;55.250;37.668;2023-04-01T09:24:15;98478.59;;;6.01;71.43
45369;BME280;51342;55.250;37.668;2023-04-01T09:45:09;98494.09;;;6.33;69.67
45369;BME280;51342;55.250;37.668;2023-04-01T09:53:53;98501.47;;;6.58;69.10
45369;BME280;51342;55.250;37.668;2023-04-01T10:05:59;98506.25;;;6.69;68.96
45369;BME280;51342;55.250;37.668;2023-04-01T10:23:35;98510.44;;;6.67;66.00
45369;BME280;51342;55.250;37.668;2023-04-01T10:50:24;98524.69;;;6.93;64.78
45369;BME280;51342;55.250;37.668;2023-04-01T10:53:07;98528.16;;;6.93;64.54
45369;BME280;51342;55.250;37.668;2023-04-01T11:06:05;98540.59;;;7.02;63.75
45369;BME280;51342;55.250;37.668;2023-04-01T11:20:22;98546.53;;;7.01;63.06
45369;BME280;51342;55.250;37.668;2023-04-01T11:35:59;98549.28;;;7.04;62.31
45369;BME280;51342;55.250;37.668;2023-04-01T11:42:38;98544.28;;;7.07;60.06
45369;BME280;51342;55.250;37.668;2023-04-01T11:45:37;98549.34;;;7.05;59.84
45369;BME280;51342;55.250;37.668;2023-04-01T11:51:09;98551.84;;;7.04;60.03
45369;BME280;51342;55.250;37.668;2023-04-01T11:57:04;98556.25;;;7.06;60.42
45369;BME280;51342;55.250;37.668;2023-04-01T11:59:46;98562.91;;;7.03;60.82
45369;BME280;51342;55.250;37.668;2023-04-01T12:02:37;98564.59;;;7.02;61.03
45369;BME280;51342;55.250;37.668;2023-04-01T12:13:59;98566.03;;;6.97;62.63
45369;BME280;51342;55.250;37.668;2023-04-01T12:19:32;98555.06;;;7.00;62.54
45369;BME280;51342;55.250;37.668;2023-04-01T12:25:45;98554.25;;;7.01;62.73
45369;BME280;51342;55.250;37.668;2023-04-01T12:28:25;98557.31;;;7.10;63.33
45369;BME280;51342;55.250;37.668;2023-04-01T12:45:30;98576.91;;;7.08;64.05
45369;BME280;51342;55.250;37.668;2023-04-01T12:48:57;98580.03;;;7.02;63.85
45369;BME280;51342;55.250;37.668;2023-04-01T12:55:12;98583.09;;;6.95;64.30
45369;BME280;51342;55.250;37.668;2023-04-01T13:12:12;98590.41;;;6.87;65.57
45369;BME280;51342;55.250;37.668;2023-04-01T13:21:21;98606.47;;;6.83;66.04
45369;BME280;51342;55.250;37.668;2023-04-01T13:30:13;98616.66;;;6.82;66.10
45369;BME280;51342;55.250;37.668;2023-04-01T13:35:31;98625.41;;;6.85;66.58
45369;BME280;51342;55.250;37.668;2023-04-01T13:43:57;98615.59;;;6.78;67.28
45369;BME280;51342;55.250;37.668;2023-04-01T13:46:44;98623.31;;;6.78;67.09
45369;BME280;51342;55.250;37.668;2023-04-01T13:52:22;98624.13;;;6.77;67.12
45369;BME280;51342;55.250;37.668;2023-04-01T14:09:52;98645.84;;;6.68;68.15
45369;BME280;51342;55.250;37.668;2023-04-01T14:13:00;98644.09;;;6.67;67.60
45369;BME280;51342;55.250;37.668;2023-04-01T14:18:28;98645.72;;;6.64;68.29
45369;BME280;51342;55.250;37.668;2023-04-01T14:21:16;98652.44;;;6.62;68.28
45369;BME280;51342;55.250;37.668;2023-04-01T14:32:15;98655.47;;;6.55;68.47
45369;BME280;51342;55.250;37.668;2023-04-01T14:34:59;98657.22;;;6.56;68.56
45369;BME280;51342;55.250;37.668;2023-04-01T14:37:45;98660.69;;;6.57;68.91
45369;BME280;51342;55.250;37.668;2023-04-01T14:40:48;98666.53;;;6.54;68.95
45369;BME280;51342;55.250;37.668;2023-04-01T14:49:04;98675.75;;;6.51;69.24
45369;BME280;51342;55.250;37.668;2023-04-01T14:51:45;98667.00;;;6.47;69.22
45369;BME280;51342;55.250;37.668;2023-04-01T14:54:21;98679.84;;;6.47;69.39
45369;BME280;51342;55.250;37.668;2023-04-01T14:57:22;98676.81;;;6.40;69.22
45369;BME280;51342;55.250;37.668;2023-04-01T15:00:09;98682.16;;;6.43;69.43
45369;BME280;51342;55.250;37.668;2023-04-01T15:03:18;98681.09;;;6.39;69.79
45369;BME280;51342;55.250;37.668;2023-04-01T15:05:50;98690.47;;;6.38;69.82
45369;BME280;51342;55.250;37.668;2023-04-01T15:20:01;98695.72;;;6.25;70.08
45369;BME280;51342;55.250;37.668;2023-04-01T15:23:01;98707.47;;;6.22;70.27
45369;BME280;51342;55.250;37.668;2023-04-01T15:39:14;98720.69;;;6.13;70.99
45369;BME280;51342;55.250;37.668;2023-04-01T15:53:09;98734.56;;;6.02;71.67
45369;BME280;51342;55.250;37.668;2023-04-01T16:01:47;98749.78;;;5.99;71.57
45369;BME280;51342;55.250;37.668;2023-04-01T16:04:43;98753.66;;;5.92;71.72
45369;BME280;51342;55.250;37.668;2023-04-01T16:19:44;98775.13;;;5.79;72.76
45369;BME280;51342;55.250;37.668;2023-04-01T16:31:27;98786.66;;;5.73;72.81
45369;BME280;51342;55.250;37.668;2023-04-01T16:34:14;98787.47;;;5.72;73.09
45369;BME280;51342;55.250;37.668;2023-04-01T16:36:48;98798.00;;;5.76;73.33
45369;BME280;51342;55.250;37.668;2023-04-01T16:39:41;98786.28;;;5.67;73.66
45369;BME280;51342;55.250;37.668;2023-04-01T16:42:52;98797.34;;;5.66;73.84
45369;BME280;51342;55.250;37.668;2023-04-01T16:45:44;98800.53;;;5.62;74.02
45369;BME280;51342;55.250;37.668;2023-04-01T16:48:27;98802.19;;;5.61;74.33
45369;BME280;51342;55.250;37.668;2023-04-01T16:51:19;98804.50;;;5.56;74.52
45369;BME280;51342;55.250;37.668;2023-04-01T16:54:31;98812.88;;;5.54;74.83
45369;BME280;51342;55.250;37.668;2023-04-01T17:02:38;98819.00;;;5.56;75.32
45369;BME280;51342;55.250;37.668;2023-04-01T17:05:13;98810.50;;;5.57;75.80
45369;BME280;51342;55.250;37.668;2023-04-01T17:13:23;98824.66;;;5.50;75.77
45369;BME280;51342;55.250;37.668;2023-04-01T17:30:16;98824.94;;;5.42;76.26
45369;BME280;51342;55.250;37.668;2023-04-01T17:44:39;98826.91;;;5.32;76.54
45369;BME280;51342;55.250;37.668;2023-04-01T17:48:05;98830.25;;;5.31;76.32
45369;BME280;51342;55.250;37.668;2023-04-01T17:56:57;98843.09;;;5.31;76.70
45369;BME280;51342;55.250;37.668;2023-04-01T17:59:38;98845.06;;;5.36;76.64
45369;BME280;51342;55.250;37.668;2023-04-01T18:05:24;98856.22;;;5.36;76.62
45369;BME280;51342;55.250;37.668;2023-04-01T18:07:56;98862.13;;;5.35;76.60
45369;BME280;51342;55.250;37.668;2023-04-01T18:11:13;98868.06;;;5.34;77.05
45369;BME280;51342;55.250;37.668;2023-04-01T18:22:39;98869.22;;;5.26;77.20
45369;BME280;51342;55.250;37.668;2023-04-01T18:25:22;98858.09;;;5.25;77.29
45369;BME280;51342;55.250;37.668;2023-04-01T18:28:19;98869.94;;;5.23;77.31
45369;BME280;51342;55.250;37.668;2023-04-01T18:30:57;98877.72;;;5.25;77.45
45369;BME280;51342;55.250;37.668;2023-04-01T18:33:41;98878.59;;;5.25;77.59
45369;BME280;51342;55.250;37.668;2023-04-01T18:39:49;98886.13;;;5.22;77.36
45369;BME280;51342;55.250;37.668;2023-04-01T18:42:24;98884.44;;;5.23;77.42
45369;BME280;51342;55.250;37.668;2023-04-01T18:48:03;98889.66;;;5.24;77.79
45369;BME280;51342;55.250;37.668;2023-04-01T18:50:55;98885.31;;;5.23;77.54
45369;BME280;51342;55.250;37.668;2023-04-01T18:53:39;98887.00;;;5.23;77.70
45369;BME280;51342;55.250;37.668;2023-04-01T18:56:32;98891.25;;;5.22;78.05
45369;BME280;51342;55.250;37.668;2023-04-01T18:59:11;98884.53;;;5.24;77.95
45369;BME280;51342;55.250;37.668;2023-04-01T19:07:45;98881.56;;;5.18;77.88
45369;BME280;51342;55.250;37.668;2023-04-01T19:19:29;98881.25;;;5.27;78.06
45369;BME280;51342;55.250;37.668;2023-04-01T19:30:14;98890.63;;;5.26;78.45
45369;BME280;51342;55.250;37.668;2023-04-01T19:35:58;98891.03;;;5.06;78.88
45369;BME280;51342;55.250;37.668;2023-04-01T19:41:47;98902.09;;;5.18;78.47
45369;BME280;51342;55.250;37.668;2023-04-01T19:44:56;98897.84;;;5.19;78.53
45369;BME280;51342;55.250;37.668;2023-04-01T19:48:00;98899.50;;;5.18;78.37
45369;BME280;51342;55.250;37.668;2023-04-01T19:53:58;98904.72;;;5.20;78.89
45369;BME280;51342;55.250;37.668;2023-04-01T20:04:47;98923.38;;;5.30;78.72
45369;BME280;51342;55.250;37.668;2023-04-01T20:10:33;98926.03;;;5.32;78.98
45369;BME280;51342;55.250;37.668;2023-04-01T20:16:06;98918.25;;;5.30;78.54
45369;BME280;51342;55.250;37.668;2023-04-01T20:21:24;98919.16;;;5.31;78.87
45369;BME280;51342;55.250;37.668;2023-04-01T20:26:50;98916.56;;;5.31;78.82
45369;BME280;51342;55.250;37.668;2023-04-01T20:32:29;98922.28;;;5.27;78.92
45369;BME280;51342;55.250;37.668;2023-04-01T20:46:47;98936.91;;;5.28;79.44
45369;BME280;51342;55.250;37.668;2023-04-01T20:49:33;98929.88;;;5.25;79.47
45369;BME280;51342;55.250;37.668;2023-04-01T20:55:52;98937.88;;;5.30;79.80
45369;BME280;51342;55.250;37.668;2023-04-01T20:57:57;98948.16;;;5.30;79.77
45369;BME280;51342;55.250;37.668;2023-04-01T21:03:18;98947.44;;;5.32;79.66
45369;BME280;51342;55.250;37.668;2023-04-01T21:20:35;98944.69;;;5.29;79.84
45369;BME280;51342;55.250;37.668;2023-04-01T21:25:54;98944.38;;;5.12;80.41
45369;BME280;51342;55.250;37.668;2023-04-01T21:48:52;98957.31;;;5.26;81.06
45369;BME280;51342;55.250;37.668;2023-04-01T21:57:54;98950.63;;;5.28;80.86
45369;BME280;51342;55.250;37.668;2023-04-01T22:00:38;98952.41;;;5.29;81.38
45369;BME280;51342;55.250;37.668;2023-04-01T22:09:00;98963.72;;;5.33;81.48
45369;BME280;51342;55.250;37.668;2023-04-01T22:14:31;98959.69;;;5.37;81.49
45369;BME280;51342;55.250;37.668;2023-04-01T22:25:12;98961.69;;;5.41;81.68
45369;BME280;51342;55.250;37.668;2023-04-01T22:27:49;98970.25;;;5.41;81.94
45369;BME280;51342;55.250;37.668;2023-04-01T22:33:07;98963.25;;;5.39;82.09
45369;BME280;51342;55.250;37.668;2023-04-01T22:41:47;98972.25;;;5.45;82.09
45369;BME280;51342;55.250;37.668;2023-04-01T22:49:59;98976.00;;;5.50;81.89
45369;BME280;51342;55.250;37.668;2023-04-01T22:52:42;98976.97;;;5.52;82.44
45369;BME280;51342;55.250;37.668;2023-04-01T22:55:28;98977.88;;;5.53;82.49
45369;BME280;51342;55.250;37.668;2023-04-01T22:58:14;98972.75;;;5.53;82.22
45369;BME280;51342;55.250;37.668;2023-04-01T23:00:59;98977.59;;;5.62;82.46
45369;BME280;51342;55.250;37.668;2023-04-01T23:03:35;98978.56;;;5.64;82.16
45369;BME280;51342;55.250;37.668;2023-04-01T23:06:16;98975.47;;;5.43;82.61
45369;BME280;51342;55.250;37.668;2023-04-01T23:11:55;98978.97;;;5.56;82.25
45369;BME280;51342;55.250;37.668;2023-04-01T23:14:43;98974.91;;;5.60;82.61
45369;BME280;51342;55.250;37.668;2023-04-01T23:25:55;98982.19;;;5.67;82.73
45369;BME280;51342;55.250;37.668;2023-04-01T23:31:40;98985.88;;;5.57;82.95
45369;BME280;51342;55.250;37.668;2023-04-01T23:36:49;98991.97;;;5.73;82.91
45369;BME280;51342;55.250;37.668;2023-04-01T23:42:00;98985.19;;;5.73;83.03
45369;BME280;51342;55.250;37.668;2023-04-01T23:44:33;98989.63;;;5.76;82.74
45369;BME280;51342;55.250;37.668;2023-04-01T23:47:08;98994.03;;;5.78;82.60
45369;BME280;51342;55.250;37.668;2023-04-01T23:49:49;98987.94;;;5.76;82.98
45369;BME280;51342;55.250;37.668;2023-04-01T23:52:29;98993.97;;;5.77;82.85
45369;BME280;51342;55.250;37.668;2023-04-01T23:57:40;99001.97;;;5.81;83.01
